Time;durP1;ratioP1;P1;durP2;ratioP2;P2;SDS_P1;SDS_P2;PMS_P1;PMS_P2;Temp;Humidity;BMP_temperature;BMP_pressure;BME280_temperature;BME280_humidity;BME280_pressure;Samples;Min_cycle;Max_cycle;Signal;HPM_P1;HPM_P2
2021/09/23 00:01:44;;;;;;;;;;;12.30;99.90;;;;;;5087891;28;20345;-85
2021/09/23 00:04:31;;;;;;;;;;;12.30;99.90;;;;;;5080164;28;20337;-85
2021/09/23 00:06:58;;;;;;;;;;;12.20;99.90;;;;;;5080290;28;20337;-85
2021/09/23 00:09:24;;;;;;;;;;;12.30;99.90;;;;;;5079775;28;19927;-85
2021/09/23 00:11:51;;;;;;;;;;;12.40;99.90;;;;;;5081436;28;19977;-85
2021/09/23 00:14:19;;;;;;;;;;;12.30;99.90;;;;;;5084559;28;19927;-85
2021/09/23 00:16:45;;;;;;;;;;;12.40;99.90;;;;;;5085911;28;19920;-84
2021/09/23 00:19:12;;;;;;;;;;;12.30;99.90;;;;;;5082411;28;20490;-84
2021/09/23 00:21:38;;;;;;;;;;;12.10;99.90;;;;;;5080602;28;20416;-84
2021/09/23 00:24:04;;;;;;;;;;;12.30;99.90;;;;;;5082308;28;20305;-85
2021/09/23 00:26:31;;;;;;;;;;;12.30;99.90;;;;;;5080128;28;19920;-84
2021/09/23 00:28:59;;;;;;;;;;;12.30;99.90;;;;;;5080689;28;19920;-85
2021/09/23 00:31:27;;;;;;;;;;;12.30;99.90;;;;;;5080635;28;19920;-85
2021/09/23 00:33:53;;;;;;;;;;;12.30;99.90;;;;;;5082052;28;20363;-85
2021/09/23 00:36:19;;;;;;;;;;;12.30;99.90;;;;;;5080749;28;19970;-85
2021/09/23 00:38:46;;;;;;;;;;;12.20;99.90;;;;;;5080282;28;20432;-84
2021/09/23 00:41:12;;;;;;;;;;;12.30;99.90;;;;;;5080474;28;19943;-84
2021/09/23 00:43:39;;;;;;;;;;;12.30;99.90;;;;;;5080563;28;19946;-85
2021/09/23 00:46:05;;;;;;;;;;;12.20;99.90;;;;;;5080248;28;20003;-85
2021/09/23 00:48:33;;;;;;;;;;;12.30;99.90;;;;;;5080338;28;19958;-85
2021/09/23 00:51:00;;;;;;;;;;;12.20;99.90;;;;;;5081225;28;19939;-85
2021/09/23 00:53:27;;;;;;;;;;;12.20;99.90;;;;;;5080426;28;19978;-85
2021/09/23 00:55:54;;;;;;;;;;;12.10;99.90;;;;;;5080419;28;19979;-85
2021/09/23 00:58:21;;;;;;;;;;;12.30;99.90;;;;;;5081139;28;19955;-84
2021/09/23 01:00:47;;;;;;;;;;;12.20;99.90;;;;;;5081382;28;19921;-85
2021/09/23 01:03:14;;;;;;;;;;;11.90;99.90;;;;;;5079924;28;19920;-85
2021/09/23 01:05:41;;;;;;;;;;;12.10;99.90;;;;;;5080380;28;19928;-85
2021/09/23 01:08:08;;;;;;;;;;;12.20;99.90;;;;;;5079372;28;20005;-85
2021/09/23 01:10:34;;;;;;;;;;;12.00;99.90;;;;;;5079670;28;19940;-85
2021/09/23 01:13:01;;;;;;;;;;;12.00;99.90;;;;;;5078253;28;19951;-85
2021/09/23 01:15:27;;;;;;;;;;;12.00;99.90;;;;;;5078738;28;20331;-85
2021/09/23 01:17:54;;;;;;;;;;;12.00;99.90;;;;;;5078848;28;20014;-84
2021/09/23 01:20:20;;;;;;;;;;;11.90;99.90;;;;;;5078727;28;19951;-85
2021/09/23 01:22:48;;;;;;;;;;;11.90;99.90;;;;;;5078077;28;19990;-83
2021/09/23 01:25:16;;;;;;;;;;;11.70;99.90;;;;;;5082573;28;20445;-84
2021/09/23 01:27:42;;;;;;;;;;;11.80;99.90;;;;;;5092349;28;19960;-83
2021/09/23 01:30:09;;;;;;;;;;;11.90;99.90;;;;;;5092055;28;19941;-84
2021/09/23 01:32:36;;;;;;;;;;;11.80;99.90;;;;;;5093416;28;19939;-84
2021/09/23 01:35:03;;;;;;;;;;;11.80;99.90;;;;;;5094646;28;19955;-84
2021/09/23 01:37:29;;;;;;;;;;;11.80;99.90;;;;;;5094149;28;20430;-85
2021/09/23 01:39:57;;;;;;;;;;;11.90;99.90;;;;;;5081879;28;20011;-85
2021/09/23 01:42:24;;;;;;;;;;;11.80;99.90;;;;;;5079147;28;19943;-85
2021/09/23 01:44:50;;;;;;;;;;;11.80;99.90;;;;;;5090880;28;19951;-85
2021/09/23 01:47:16;;;;;;;;;;;11.60;99.90;;;;;;5078685;28;19980;-85
2021/09/23 01:49:43;;;;;;;;;;;11.80;99.90;;;;;;5079724;28;19968;-85
2021/09/23 01:52:09;;;;;;;;;;;11.70;99.90;;;;;;5079119;28;19946;-85
2021/09/23 01:54:36;;;;;;;;;;;11.70;99.90;;;;;;5078376;28;19942;-85
2021/09/23 01:57:04;;;;;;;;;;;11.80;99.90;;;;;;5078453;28;19960;-85
2021/09/23 01:59:30;;;;;;;;;;;11.70;99.90;;;;;;5077738;28;19954;-85
2021/09/23 02:01:57;;;;;;;;;;;11.40;99.90;;;;;;5078472;28;19940;-84
2021/09/23 02:04:23;;;;;;;;;;;11.50;99.90;;;;;;5079639;28;19940;-84
2021/09/23 02:06:49;;;;;;;;;;;11.60;99.90;;;;;;5079795;28;19957;-85
2021/09/23 02:09:16;;;;;;;;;;;11.70;99.90;;;;;;5080108;28;19960;-83
2021/09/23 02:11:42;;;;;;;;;;;11.70;99.90;;;;;;5078727;28;19946;-85
2021/09/23 02:14:10;;;;;;;;;;;11.80;99.90;;;;;;5078485;28;19939;-85
2021/09/23 02:16:37;;;;;;;;;;;11.70;99.90;;;;;;5080749;28;19965;-85
2021/09/23 02:19:03;;;;;;;;;;;11.50;99.90;;;;;;5080686;28;19994;-85
2021/09/23 02:21:30;;;;;;;;;;;11.60;99.90;;;;;;5079664;28;19949;-86
2021/09/23 02:23:56;;;;;;;;;;;11.60;99.90;;;;;;5078654;28;19995;-86
2021/09/23 02:26:23;;;;;;;;;;;11.50;99.90;;;;;;5078610;28;19945;-85
2021/09/23 02:28:49;;;;;;;;;;;11.50;99.90;;;;;;5079039;28;20329;-85
2021/09/23 02:31:17;;;;;;;;;;;11.50;99.90;;;;;;5078365;28;19980;-86
2021/09/23 02:33:44;;;;;;;;;;;11.40;99.90;;;;;;5079126;28;19940;-85
2021/09/23 02:36:10;;;;;;;;;;;11.50;99.90;;;;;;5078251;28;19962;-85
2021/09/23 02:38:37;;;;;;;;;;;11.40;99.90;;;;;;5095571;28;19948;-85
2021/09/23 02:41:03;;;;;;;;;;;11.40;99.90;;;;;;5099161;28;19936;-85
2021/09/23 02:43:30;;;;;;;;;;;11.40;99.90;;;;;;5099162;28;19925;-85
2021/09/23 02:45:56;;;;;;;;;;;11.30;99.90;;;;;;5099072;28;19932;-85
2021/09/23 02:48:24;;;;;;;;;;;11.30;99.90;;;;;;5098929;28;19975;-85
2021/09/23 02:50:50;;;;;;;;;;;11.30;99.90;;;;;;5090270;28;19937;-85
2021/09/23 02:53:17;;;;;;;;;;;11.30;99.90;;;;;;5080599;28;20317;-85
2021/09/23 02:55:43;;;;;;;;;;;11.30;99.90;;;;;;5080244;28;20340;-85
2021/09/23 02:58:10;;;;;;;;;;;11.30;99.90;;;;;;5079620;28;19966;-84
2021/09/23 03:00:36;;;;;;;;;;;11.30;99.90;;;;;;5078028;28;19954;-85
2021/09/23 03:03:04;;;;;;;;;;;11.20;99.90;;;;;;5080606;28;19942;-83
2021/09/23 03:05:31;;;;;;;;;;;11.20;99.90;;;;;;5088270;28;19949;-83
2021/09/23 03:07:58;;;;;;;;;;;11.20;99.90;;;;;;5086474;28;19962;-86
2021/09/23 03:10:25;;;;;;;;;;;11.20;99.90;;;;;;5090445;28;19945;-84
2021/09/23 03:12:51;;;;;;;;;;;11.20;99.90;;;;;;5094102;28;19941;-84
2021/09/23 03:15:18;;;;;;;;;;;11.10;99.90;;;;;;5094445;28;20416;-84
2021/09/23 03:17:44;;;;;;;;;;;11.10;99.90;;;;;;5088788;28;19956;-85
2021/09/23 03:20:11;;;;;;;;;;;11.10;99.90;;;;;;5087056;28;19953;-84
2021/09/23 03:22:39;;;;;;;;;;;11.10;99.90;;;;;;5084131;28;19939;-85
2021/09/23 03:25:06;;;;;;;;;;;11.00;99.90;;;;;;5084679;28;19940;-85
2021/09/23 03:27:33;;;;;;;;;;;11.10;99.90;;;;;;5083799;28;20019;-86
2021/09/23 03:30:00;;;;;;;;;;;11.10;99.90;;;;;;5085361;28;19949;-84
2021/09/23 03:32:26;;;;;;;;;;;11.10;99.90;;;;;;5090102;28;19942;-84
2021/09/23 03:34:53;;;;;;;;;;;11.10;99.90;;;;;;5090189;28;19946;-84
2021/09/23 03:37:19;;;;;;;;;;;11.10;99.90;;;;;;5088605;28;19956;-85
2021/09/23 03:39:47;;;;;;;;;;;11.20;99.90;;;;;;5091940;28;19955;-86
2021/09/23 03:42:13;;;;;;;;;;;11.30;99.90;;;;;;5095302;28;19947;-85
2021/09/23 03:44:40;;;;;;;;;;;11.10;99.90;;;;;;5095388;28;19940;-85
2021/09/23 03:47:06;;;;;;;;;;;11.40;99.90;;;;;;5096424;28;19970;-85
2021/09/23 03:49:33;;;;;;;;;;;11.30;99.90;;;;;;5095428;28;19949;-85
2021/09/23 03:51:59;;;;;;;;;;;11.30;99.90;;;;;;5096502;28;19941;-84
2021/09/23 03:54:26;;;;;;;;;;;11.20;99.90;;;;;;5095781;28;19943;-84
2021/09/23 03:56:53;;;;;;;;;;;11.20;99.90;;;;;;5090422;28;19956;-84
2021/09/23 03:59:20;;;;;;;;;;;11.30;99.90;;;;;;5088298;28;19970;-83
2021/09/23 04:01:48;;;;;;;;;;;11.30;99.90;;;;;;5091915;28;19961;-84
2021/09/23 04:04:14;;;;;;;;;;;11.30;99.90;;;;;;5090140;28;19947;-85
2021/09/23 04:06:43;;;;;;;;;;;11.10;99.90;;;;;;5089164;28;20030;-85
2021/09/23 04:09:10;;;;;;;;;;;11.30;99.90;;;;;;5085195;28;19952;-85
2021/09/23 04:11:36;;;;;;;;;;;11.30;99.90;;;;;;5080382;28;19940;-85
2021/09/23 04:14:04;;;;;;;;;;;11.20;99.90;;;;;;5080630;28;19944;-85
2021/09/23 04:16:31;;;;;;;;;;;11.30;99.90;;;;;;5079557;28;19941;-85
2021/09/23 04:18:57;;;;;;;;;;;11.40;99.90;;;;;;5078408;28;19943;-85
2021/09/23 04:21:24;;;;;;;;;;;11.40;99.90;;;;;;5078663;28;20510;-85
2021/09/23 04:23:50;;;;;;;;;;;11.40;99.90;;;;;;5078373;28;19989;-85
2021/09/23 04:26:17;;;;;;;;;;;11.30;99.90;;;;;;5078687;28;19987;-85
2021/09/23 04:28:43;;;;;;;;;;;11.30;99.90;;;;;;5100232;22;20014;-90
2021/09/23 04:31:11;;;;;;;;;;;11.40;99.90;;;;;;5078233;28;19940;-90
2021/09/23 04:33:37;;;;;;;;;;;11.30;99.90;;;;;;5076865;28;19942;-90
2021/09/23 04:36:04;;;;;;;;;;;11.40;99.90;;;;;;5076825;28;19940;-90
2021/09/23 04:38:31;;;;;;;;;;;11.40;99.90;;;;;;5077302;28;20406;-91
2021/09/23 04:40:58;;;;;;;;;;;10.90;99.90;;;;;;5076915;28;19956;-91
2021/09/23 04:43:24;;;;;;;;;;;11.30;99.90;;;;;;5077082;28;19942;-90
2021/09/23 04:45:51;;;;;;;;;;;11.40;99.90;;;;;;5078204;28;19993;-90
2021/09/23 04:48:19;;;;;;;;;;;11.40;99.90;;;;;;5078054;28;20051;-90
2021/09/23 04:50:46;;;;;;;;;;;10.90;99.90;;;;;;5078589;28;19962;-90
2021/09/23 04:53:12;;;;;;;;;;;11.10;99.90;;;;;;5078403;28;20443;-90
2021/09/23 04:55:39;;;;;;;;;;;11.40;99.90;;;;;;5078238;28;20291;-90
2021/09/23 04:58:08;;;;;;;;;;;11.40;99.90;;;;;;5091921;28;19961;-90
2021/09/23 05:00:34;;;;;;;;;;;11.30;99.90;;;;;;5080311;28;19962;-90
2021/09/23 05:03:01;;;;;;;;;;;11.00;99.90;;;;;;5077112;28;19989;-90
2021/09/23 05:05:29;;;;;;;;;;;11.40;99.90;;;;;;5080614;28;19946;-90
2021/09/23 05:07:56;;;;;;;;;;;11.10;99.90;;;;;;5086947;28;19962;-90
2021/09/23 05:10:23;;;;;;;;;;;11.40;99.90;;;;;;5084224;28;19966;-92
2021/09/23 05:12:49;;;;;;;;;;;11.40;99.90;;;;;;5085479;28;19955;-92
2021/09/23 05:15:16;;;;;;;;;;;11.00;99.90;;;;;;5097732;28;19936;-91
2021/09/23 05:17:42;;;;;;;;;;;11.40;99.90;;;;;;5096887;28;20014;-90
2021/09/23 05:20:09;;;;;;;;;;;11.00;99.90;;;;;;5098240;28;19939;-90
2021/09/23 05:22:38;;;;;;;;;;;11.40;99.90;;;;;;5098550;28;19994;-90
2021/09/23 05:25:05;;;;;;;;;;;10.10;99.90;;;;;;5098422;28;19933;-90
2021/09/23 05:27:34;;;;;;;;;;;10.80;99.90;;;;;;5098684;28;19954;-90
2021/09/23 05:30:01;;;;;;;;;;;11.50;99.90;;;;;;5098485;28;20006;-90
2021/09/23 05:32:28;;;;;;;;;;;11.50;99.90;;;;;;5098571;28;19927;-89
2021/09/23 05:34:54;;;;;;;;;;;11.50;99.90;;;;;;5093585;28;19968;-90
2021/09/23 05:37:21;;;;;;;;;;;11.60;99.90;;;;;;5097083;28;19956;-91
2021/09/23 05:39:51;;;;;;;;;;;11.30;99.90;;;;;;5091908;28;19940;-91
2021/09/23 05:42:18;;;;;;;;;;;11.80;99.90;;;;;;5081795;28;19983;-91
2021/09/23 05:44:45;;;;;;;;;;;11.70;99.90;;;;;;5078388;28;19995;-91
2021/09/23 05:47:13;;;;;;;;;;;11.60;99.90;;;;;;5081137;28;19961;-91
2021/09/23 05:49:41;;;;;;;;;;;12.50;99.90;;;;;;5079401;28;20027;-91
2021/09/23 05:52:07;;;;;;;;;;;11.60;99.90;;;;;;5092449;28;19930;-91
2021/09/23 05:54:34;;;;;;;;;;;11.60;99.90;;;;;;5098334;28;19930;-91
2021/09/23 05:57:02;;;;;;;;;;;11.80;99.90;;;;;;5079044;28;20337;-92
2021/09/23 05:59:29;;;;;;;;;;;11.10;99.90;;;;;;5080834;28;19948;-92
2021/09/23 06:01:55;;;;;;;;;;;11.70;99.90;;;;;;5079442;28;19965;-91
2021/09/23 06:04:22;;;;;;;;;;;11.80;99.90;;;;;;5080193;28;19948;-91
2021/09/23 06:06:49;;;;;;;;;;;11.90;99.90;;;;;;5079640;28;19990;-91
2021/09/23 06:09:16;;;;;;;;;;;12.00;99.90;;;;;;5080715;28;19942;-92
2021/09/23 06:11:43;;;;;;;;;;;12.00;99.90;;;;;;5079285;28;19944;-91
2021/09/23 06:14:11;;;;;;;;;;;12.10;99.90;;;;;;5080255;28;19947;-92
2021/09/23 06:16:38;;;;;;;;;;;11.90;99.90;;;;;;5076986;28;19949;-92
2021/09/23 06:19:07;;;;;;;;;;;12.10;99.90;;;;;;5075666;28;19941;-92
2021/09/23 06:21:33;;;;;;;;;;;12.20;99.90;;;;;;5076111;28;19960;-92
2021/09/23 06:24:02;;;;;;;;;;;11.90;99.90;;;;;;5074977;28;19943;-92
2021/09/23 06:26:28;;;;;;;;;;;13.40;99.90;;;;;;5091923;28;19940;-91
2021/09/23 06:28:56;;;;;;;;;;;12.10;99.90;;;;;;5096337;28;19965;-91
2021/09/23 06:31:24;;;;;;;;;;;12.30;99.90;;;;;;5096247;28;19999;-91
2021/09/23 06:33:50;;;;;;;;;;;12.20;99.90;;;;;;5089720;28;20393;-90
2021/09/23 06:36:17;;;;;;;;;;;12.30;99.90;;;;;;5078137;28;20011;-91
2021/09/23 06:38:44;;;;;;;;;;;12.60;99.90;;;;;;5075280;28;19959;-92
2021/09/23 06:41:11;;;;;;;;;;;12.30;99.90;;;;;;5092339;28;19960;-91
2021/09/23 06:43:38;;;;;;;;;;;12.40;99.90;;;;;;5091290;28;19931;-91
2021/09/23 06:46:05;;;;;;;;;;;11.30;99.90;;;;;;5097634;28;19952;-92
2021/09/23 06:48:36;;;;;;;;;;;12.50;99.90;;;;;;5089724;28;19959;-90
2021/09/23 06:51:03;;;;;;;;;;;12.10;99.90;;;;;;5079811;28;19981;-92
2021/09/23 06:53:30;;;;;;;;;;;12.70;99.90;;;;;;5082049;28;20431;-91
2021/09/23 06:55:58;;;;;;;;;;;12.70;99.90;;;;;;5082164;28;19946;-91
2021/09/23 06:58:25;;;;;;;;;;;12.60;99.90;;;;;;5081283;28;19963;-91
2021/09/23 07:00:53;;;;;;;;;;;12.80;99.90;;;;;;5081691;28;19957;-91
2021/09/23 07:03:22;;;;;;;;;;;12.50;99.90;;;;;;5082467;28;19943;-91
2021/09/23 07:05:50;;;;;;;;;;;12.80;99.90;;;;;;5083293;28;19947;-92
2021/09/23 07:08:18;;;;;;;;;;;12.60;99.90;;;;;;5082887;28;20053;-90
2021/09/23 07:10:45;;;;;;;;;;;13.00;99.90;;;;;;5089384;28;20032;-90
2021/09/23 07:13:14;;;;;;;;;;;13.00;99.90;;;;;;5100967;28;19929;-90
2021/09/23 07:15:41;;;;;;;;;;;13.00;99.90;;;;;;5101188;28;19945;-90
2021/09/23 07:18:10;;;;;;;;;;;13.10;99.90;;;;;;5098546;28;19957;-91
2021/09/23 07:20:37;;;;;;;;;;;13.10;99.90;;;;;;5085121;28;19948;-91
2021/09/23 07:23:08;;;;;;;;;;;13.10;99.90;;;;;;5081223;28;19946;-91
2021/09/23 07:25:35;;;;;;;;;;;13.20;99.90;;;;;;5081568;28;19946;-91
2021/09/23 07:28:04;;;;;;;;;;;13.00;99.90;;;;;;5085815;28;19971;-90
2021/09/23 07:30:30;;;;;;;;;;;13.40;99.90;;;;;;5100768;28;19928;-91
2021/09/23 07:32:58;;;;;;;;;;;13.10;99.90;;;;;;5100679;28;19950;-91
2021/09/23 07:35:35;;;;;;;;;;;13.50;99.90;;;;;;5227061;22;19969;-93
2021/09/23 07:38:05;;;;;;;;;;;13.60;99.90;;;;;;5087172;28;19957;-91
2021/09/23 07:40:47;;;;;;;;;;;13.80;99.90;;;;;;5083016;28;20348;-91
2021/09/23 07:43:21;;;;;;;;;;;14.30;99.90;;;;;;5088312;28;19943;-92
2021/09/23 07:45:53;;;;;;;;;;;13.90;99.90;;;;;;5093855;28;19928;-91
2021/09/23 07:48:22;;;;;;;;;;;13.90;99.90;;;;;;5095201;28;20011;-91
2021/09/23 07:51:12;;;;;;;;;;;15.90;99.90;;;;;;5098636;28;19940;-92
2021/09/23 07:53:55;;;;;;;;;;;14.10;99.90;;;;;;5094840;28;19929;-91
2021/09/23 07:56:35;;;;;;;;;;;14.10;99.90;;;;;;5100001;28;19998;-92
2021/09/23 07:59:14;;;;;;;;;;;13.80;99.90;;;;;;5098895;28;19969;-92
2021/09/23 08:01:45;;;;;;;;;;;14.40;99.90;;;;;;5091414;28;20002;-92
2021/09/23 08:04:15;;;;;;;;;;;14.50;99.90;;;;;;5089057;28;20369;-92
2021/09/23 08:06:47;;;;;;;;;;;14.50;99.90;;;;;;5093141;28;19949;-92
2021/09/23 08:09:25;;;;;;;;;;;13.70;99.90;;;;;;5089110;28;19953;-92
2021/09/23 08:11:58;;;;;;;;;;;14.80;99.90;;;;;;5077831;28;19940;-92
2021/09/23 08:17:27;;;;;;;;;;;15.10;99.90;;;;;;5099644;28;20037;-91
2021/09/23 08:20:16;;;;;;;;;;;16.10;99.90;;;;;;5099848;27;19987;-93
2021/09/23 08:22:48;;;;;;;;;;;16.90;99.90;;;;;;5098720;28;19998;-91
2021/09/23 08:25:19;;;;;;;;;;;15.40;99.90;;;;;;5097029;28;19944;-91
2021/09/23 08:27:58;;;;;;;;;;;15.50;99.90;;;;;;5097854;28;19947;-93
2021/09/23 08:33:11;;;;;;;;;;;15.50;99.90;;;;;;5084271;28;19973;-91
2021/09/23 08:35:39;;;;;;;;;;;16.40;99.90;;;;;;5084387;28;19943;-91
2021/09/23 08:41:01;;;;;;;;;;;15.70;99.90;;;;;;5076935;28;19936;-92
2021/09/23 08:43:32;;;;;;;;;;;15.80;99.90;;;;;;5083416;28;19963;-92
2021/09/23 08:46:31;;;;;;;;;;;15.70;99.90;;;;;;5081948;28;20114;-91
2021/09/23 08:49:07;;;;;;;;;;;17.90;99.90;;;;;;5082273;28;19962;-92
2021/09/23 08:51:37;;;;;;;;;;;15.60;99.90;;;;;;5087267;28;19929;-92
2021/09/23 08:54:17;;;;;;;;;;;15.80;99.90;;;;;;5098366;28;19926;-92
2021/09/23 08:57:04;;;;;;;;;;;17.20;99.90;;;;;;5092290;28;19961;-92
2021/09/23 09:03:03;;;;;;;;;;;15.80;99.90;;;;;;5077893;28;19956;-91
2021/09/23 09:05:37;;;;;;;;;;;15.90;99.90;;;;;;5080177;28;20043;-91
2021/09/23 09:08:10;;;;;;;;;;;16.20;99.90;;;;;;5080520;28;19960;-92
2021/09/23 09:10:38;;;;;;;;;;;15.90;99.90;;;;;;5081059;28;19977;-92
2021/09/23 09:13:09;;;;;;;;;;;16.00;99.90;;;;;;5078344;28;19941;-92
2021/09/23 09:15:38;;;;;;;;;;;16.00;99.90;;;;;;5081159;28;19953;-93
2021/09/23 09:18:15;;;;;;;;;;;16.10;99.90;;;;;;5098311;28;19991;-93
2021/09/23 09:21:09;;;;;;;;;;;16.80;99.90;;;;;;5095877;28;19934;-92
2021/09/23 09:32:42;;;;;;;;;;;16.30;99.90;;;;;;5075911;28;19949;-92
2021/09/23 09:35:17;;;;;;;;;;;15.60;99.90;;;;;;5082229;28;19937;-91
2021/09/23 09:40:34;;;;;;;;;;;16.70;99.90;;;;;;5082232;28;19943;-91
2021/09/23 09:49:11;;;;;;;;;;;17.80;99.90;;;;;;4993317;28;19978;-91
2021/09/23 09:54:29;;;;;;;;;;;16.70;99.90;;;;;;5052296;28;19939;-91
2021/09/23 09:59:46;;;;;;;;;;;16.90;99.90;;;;;;5081011;28;19940;-91
2021/09/23 10:02:17;;;;;;;;;;;16.80;99.90;;;;;;5079583;28;19956;-92
2021/09/23 10:04:53;;;;;;;;;;;18.10;99.90;;;;;;5079857;28;19990;-91
2021/09/23 10:07:27;;;;;;;;;;;16.70;99.90;;;;;;5080864;28;19951;-92
2021/09/23 10:10:01;;;;;;;;;;;17.00;99.90;;;;;;5079276;28;19948;-91
2021/09/23 10:15:20;;;;;;;;;;;17.10;99.90;;;;;;5080338;28;19981;-92
2021/09/23 10:17:48;;;;;;;;;;;17.00;99.90;;;;;;5082465;28;19954;-91
2021/09/23 10:20:25;;;;;;;;;;;17.30;99.90;;;;;;5080442;28;20372;-91
2021/09/23 10:22:56;;;;;;;;;;;20.40;99.90;;;;;;5080026;28;20233;-91
2021/09/23 10:25:35;;;;;;;;;;;17.50;99.90;;;;;;5077984;28;20000;-91
2021/09/23 10:28:04;;;;;;;;;;;17.50;99.90;;;;;;5113512;22;20388;-84
2021/09/23 10:30:32;;;;;;;;;;;17.70;99.90;;;;;;5083913;28;20341;-84
2021/09/23 10:32:59;;;;;;;;;;;17.60;99.90;;;;;;5083620;28;19960;-84
2021/09/23 10:35:26;;;;;;;;;;;17.60;99.90;;;;;;5081582;28;19993;-85
2021/09/23 10:37:56;;;;;;;;;;;17.60;99.90;;;;;;5082346;28;19958;-85
2021/09/23 10:40:22;;;;;;;;;;;17.70;99.90;;;;;;5082258;28;19994;-84
2021/09/23 10:42:50;;;;;;;;;;;17.80;99.90;;;;;;5082486;28;20484;-84
2021/09/23 10:45:17;;;;;;;;;;;17.50;99.90;;;;;;5082701;28;19961;-84
2021/09/23 10:47:46;;;;;;;;;;;17.60;99.90;;;;;;5086392;28;19961;-84
2021/09/23 10:50:13;;;;;;;;;;;17.90;99.90;;;;;;5091262;28;19974;-84
2021/09/23 10:52:40;;;;;;;;;;;17.90;99.90;;;;;;5083350;28;20012;-84
2021/09/23 10:55:09;;;;;;;;;;;17.90;99.90;;;;;;5084511;28;20293;-85
2021/09/23 10:57:36;;;;;;;;;;;17.80;99.90;;;;;;5082785;28;19966;-85
2021/09/23 11:00:04;;;;;;;;;;;17.60;99.90;;;;;;5083588;28;19948;-85
2021/09/23 11:02:32;;;;;;;;;;;17.80;99.90;;;;;;5083037;28;19951;-85
2021/09/23 11:05:00;;;;;;;;;;;17.90;99.90;;;;;;5082485;28;19946;-84
2021/09/23 11:07:28;;;;;;;;;;;18.00;99.90;;;;;;5082611;28;19958;-85
2021/09/23 11:10:10;;;;;;;;;;;18.10;99.90;;;;;;5083810;28;19941;-85
2021/09/23 11:12:38;;;;;;;;;;;18.10;99.90;;;;;;5084471;28;19931;-84
2021/09/23 11:15:06;;;;;;;;;;;18.10;99.90;;;;;;5083830;28;19940;-84
2021/09/23 11:17:33;;;;;;;;;;;18.10;99.90;;;;;;5082572;28;19958;-84
2021/09/23 11:20:02;;;;;;;;;;;18.10;99.90;;;;;;5081370;28;20043;-84
2021/09/23 11:22:33;;;;;;;;;;;18.30;99.90;;;;;;5082346;28;19954;-85
2021/09/23 11:25:01;;;;;;;;;;;18.20;99.90;;;;;;5083064;28;19943;-85
2021/09/23 11:27:29;;;;;;;;;;;18.10;99.90;;;;;;5079681;28;20497;-85
2021/09/23 11:29:55;;;;;;;;;;;18.00;99.90;;;;;;5081308;28;19980;-85
2021/09/23 11:32:22;;;;;;;;;;;18.20;99.90;;;;;;5083246;28;19942;-85
2021/09/23 11:34:56;;;;;;;;;;;18.30;99.90;;;;;;5083953;28;19942;-85
2021/09/23 11:37:27;;;;;;;;;;;18.30;99.90;;;;;;5095926;28;20429;-85
2021/09/23 11:39:57;;;;;;;;;;;18.40;99.90;;;;;;5100127;28;20405;-84
2021/09/23 11:42:24;;;;;;;;;;;18.40;99.90;;;;;;5098571;28;19980;-85
2021/09/23 11:44:52;;;;;;;;;;;18.70;99.90;;;;;;5099807;28;20128;-85
2021/09/23 11:47:19;;;;;;;;;;;18.50;99.90;;;;;;5099882;28;19944;-84
2021/09/23 11:49:48;;;;;;;;;;;18.70;99.90;;;;;;5099748;28;19942;-84
2021/09/23 11:52:15;;;;;;;;;;;18.60;99.90;;;;;;5087526;28;19921;-84
2021/09/23 11:54:41;;;;;;;;;;;18.70;99.90;;;;;;5082437;28;19973;-84
2021/09/23 11:57:14;;;;;;;;;;;18.50;99.90;;;;;;5082004;28;19950;-85
2021/09/23 11:59:40;;;;;;;;;;;18.60;99.90;;;;;;5082199;28;19938;-85
2021/09/23 12:02:08;;;;;;;;;;;18.70;99.90;;;;;;5085112;28;19943;-85
2021/09/23 12:04:35;;;;;;;;;;;18.60;99.90;;;;;;5083317;28;19992;-85
2021/09/23 12:07:02;;;;;;;;;;;18.60;99.90;;;;;;5081874;28;20339;-85
2021/09/23 12:09:28;;;;;;;;;;;18.50;99.90;;;;;;5083917;28;19948;-85
2021/09/23 12:11:55;;;;;;;;;;;18.70;99.90;;;;;;5084069;28;19950;-85
2021/09/23 12:14:22;;;;;;;;;;;18.70;99.90;;;;;;5089544;28;19937;-85
2021/09/23 12:16:48;;;;;;;;;;;18.70;99.90;;;;;;5091503;28;19945;-85
2021/09/23 12:19:17;;;;;;;;;;;18.80;99.90;;;;;;5090500;28;19986;-85
2021/09/23 12:21:50;;;;;;;;;;;18.80;99.90;;;;;;5094847;28;19942;-85
2021/09/23 12:24:17;;;;;;;;;;;18.90;99.90;;;;;;5093543;28;20012;-84
2021/09/23 12:26:44;;;;;;;;;;;18.40;99.90;;;;;;5096305;28;19963;-84
2021/09/23 12:29:11;;;;;;;;;;;19.10;99.90;;;;;;5095419;28;19961;-85
2021/09/23 12:31:39;;;;;;;;;;;18.90;99.90;;;;;;5096447;28;19941;-85
2021/09/23 12:34:07;;;;;;;;;;;18.80;99.90;;;;;;5095656;28;19955;-85
2021/09/23 12:36:36;;;;;;;;;;;18.80;99.90;;;;;;5092953;28;20042;-85
2021/09/23 12:39:15;;;;;;;;;;;18.90;99.90;;;;;;5096047;28;19966;-85
2021/09/23 12:41:42;;;;;;;;;;;18.80;99.90;;;;;;5091756;28;19941;-84
2021/09/23 12:44:09;;;;;;;;;;;18.70;99.90;;;;;;5090977;28;19959;-84
2021/09/23 12:46:36;;;;;;;;;;;18.80;99.90;;;;;;5089925;28;20365;-85
2021/09/23 12:49:15;;;;;;;;;;;18.50;99.90;;;;;;5092594;28;19956;-85
2021/09/23 12:51:45;;;;;;;;;;;19.00;99.90;;;;;;5096339;28;19937;-85
2021/09/23 12:54:16;;;;;;;;;;;19.00;99.90;;;;;;5096700;28;19946;-85
2021/09/23 12:56:42;;;;;;;;;;;19.00;99.90;;;;;;5094924;28;19950;-84
2021/09/23 12:59:22;;;;;;;;;;;18.90;99.90;;;;;;5093716;28;19960;-84
2021/09/23 13:01:48;;;;;;;;;;;18.90;99.90;;;;;;5093778;28;19993;-85
2021/09/23 13:04:22;;;;;;;;;;;18.90;99.90;;;;;;5097964;28;19961;-84
2021/09/23 13:06:50;;;;;;;;;;;19.10;99.90;;;;;;5098571;28;19925;-85
2021/09/23 13:09:16;;;;;;;;;;;19.10;99.90;;;;;;5097068;28;19953;-85
2021/09/23 13:11:43;;;;;;;;;;;19.00;99.90;;;;;;5093673;28;20000;-85
2021/09/23 13:14:20;;;;;;;;;;;19.20;99.90;;;;;;5097976;28;19948;-86
2021/09/23 13:16:47;;;;;;;;;;;19.10;99.90;;;;;;5095651;28;19960;-85
2021/09/23 13:19:13;;;;;;;;;;;18.60;99.90;;;;;;5095585;28;20114;-84
2021/09/23 13:21:40;;;;;;;;;;;19.20;99.90;;;;;;5094963;28;19940;-84
2021/09/23 13:24:08;;;;;;;;;;;19.10;99.90;;;;;;5095598;28;19954;-85
2021/09/23 13:26:35;;;;;;;;;;;19.10;99.90;;;;;;5095438;28;19946;-85
2021/09/23 13:29:01;;;;;;;;;;;19.10;99.90;;;;;;5089385;28;19958;-85
2021/09/23 13:31:27;;;;;;;;;;;18.60;99.90;;;;;;5080924;28;19964;-87
2021/09/23 13:33:54;;;;;;;;;;;19.10;99.90;;;;;;5080400;28;19982;-85
2021/09/23 13:36:21;;;;;;;;;;;19.30;99.90;;;;;;5080714;28;20015;-84
2021/09/23 13:38:47;;;;;;;;;;;18.90;99.90;;;;;;5080767;28;20061;-84
2021/09/23 13:41:15;;;;;;;;;;;19.10;99.90;;;;;;5078069;28;19942;-85
2021/09/23 13:43:42;;;;;;;;;;;18.70;99.90;;;;;;5079195;28;19995;-84
2021/09/23 13:46:08;;;;;;;;;;;19.00;99.90;;;;;;5086510;28;19950;-85
2021/09/23 13:48:35;;;;;;;;;;;19.10;99.90;;;;;;5085250;28;20006;-84
2021/09/23 13:51:02;;;;;;;;;;;18.70;99.90;;;;;;5080878;28;19942;-86
2021/09/23 13:53:29;;;;;;;;;;;19.00;99.90;;;;;;5081760;28;20323;-86
2021/09/23 13:55:56;;;;;;;;;;;19.20;99.90;;;;;;5081064;28;19942;-86
2021/09/23 13:58:27;;;;;;;;;;;19.40;99.90;;;;;;5079611;28;19956;-84
2021/09/23 14:00:53;;;;;;;;;;;19.00;99.90;;;;;;5078560;28;20011;-85
2021/09/23 14:03:24;;;;;;;;;;;19.40;99.90;;;;;;5080669;28;19958;-86
2021/09/23 14:05:50;;;;;;;;;;;19.30;99.90;;;;;;5080559;28;20390;-85
2021/09/23 14:08:16;;;;;;;;;;;19.30;99.90;;;;;;5078023;28;19960;-85
2021/09/23 14:10:43;;;;;;;;;;;19.30;99.90;;;;;;5079270;28;19940;-85
2021/09/23 14:13:09;;;;;;;;;;;19.10;99.90;;;;;;5079772;28;20074;-86
2021/09/23 14:15:37;;;;;;;;;;;19.10;99.90;;;;;;5081311;28;19944;-85
2021/09/23 14:18:04;;;;;;;;;;;19.20;99.90;;;;;;5080074;28;19961;-85
2021/09/23 14:20:30;;;;;;;;;;;19.00;99.90;;;;;;5079369;28;19948;-85
2021/09/23 14:22:56;;;;;;;;;;;19.20;99.90;;;;;;5080780;28;20348;-85
2021/09/23 14:25:23;;;;;;;;;;;18.50;99.90;;;;;;5086097;28;19950;-85
2021/09/23 14:27:51;;;;;;;;;;;19.10;99.90;;;;;;5085264;28;19963;-85
2021/09/23 14:30:18;;;;;;;;;;;18.90;99.90;;;;;;5081000;28;20436;-85
2021/09/23 14:32:45;;;;;;;;;;;18.70;99.90;;;;;;5079683;28;20055;-85
2021/09/23 14:35:12;;;;;;;;;;;18.90;99.90;;;;;;5079619;28;19945;-85
2021/09/23 14:37:39;;;;;;;;;;;18.90;99.90;;;;;;5080920;28;19963;-85
2021/09/23 14:40:06;;;;;;;;;;;19.00;99.90;;;;;;5078669;28;20468;-85
2021/09/23 14:42:33;;;;;;;;;;;18.90;99.90;;;;;;5079861;28;19960;-86
2021/09/23 14:44:59;;;;;;;;;;;18.80;99.90;;;;;;5082908;28;19980;-84
2021/09/23 14:47:26;;;;;;;;;;;18.60;99.90;;;;;;5079009;28;19959;-86
2021/09/23 14:49:57;;;;;;;;;;;18.30;99.90;;;;;;5083253;28;19950;-85
2021/09/23 14:52:23;;;;;;;;;;;18.80;99.90;;;;;;5080013;28;20315;-85
2021/09/23 14:54:50;;;;;;;;;;;18.80;99.90;;;;;;5079797;28;19949;-84
2021/09/23 14:57:17;;;;;;;;;;;18.60;99.90;;;;;;5079618;28;20000;-85
2021/09/23 14:59:43;;;;;;;;;;;19.00;99.90;;;;;;5078230;28;19945;-85
2021/09/23 15:02:10;;;;;;;;;;;18.70;99.90;;;;;;5081038;28;19944;-86